sensor_id;sensor_type;location;lat;lon;timestamp;P1;durP1;ratioP1;P2;durP2;ratioP2
67571;SDS011;54397;47.506;19.158;2023-03-01T00:00:50;26.20;;;15.37;;
67571;SDS011;54397;47.506;19.158;2023-03-01T00:04:12;22.73;;;14.93;;
67571;SDS011;54397;47.506;19.158;2023-03-01T00:07:34;22.60;;;13.67;;
67571;SDS011;54397;47.506;19.158;2023-03-01T00:14:28;21.07;;;14.00;;
67571;SDS011;54397;47.506;19.158;2023-03-01T00:17:49;23.37;;;14.07;;
67571;SDS011;54397;47.506;19.158;2023-03-01T00:21:11;23.83;;;14.50;;
67571;SDS011;54397;47.506;19.158;2023-03-01T00:24:33;19.67;;;13.77;;
67571;SDS011;54397;47.506;19.158;2023-03-01T00:27:55;21.10;;;13.97;;
67571;SDS011;54397;47.506;19.158;2023-03-01T00:31:18;24.47;;;13.77;;
67571;SDS011;54397;47.506;19.158;2023-03-01T00:34:41;23.43;;;13.70;;
67571;SDS011;54397;47.506;19.158;2023-03-01T00:38:16;22.87;;;13.20;;
67571;SDS011;54397;47.506;19.158;2023-03-01T00:41:40;20.47;;;12.40;;
67571;SDS011;54397;47.506;19.158;2023-03-01T00:45:05;17.97;;;12.30;;
67571;SDS011;54397;47.506;19.158;2023-03-01T00:48:29;23.93;;;12.97;;
67571;SDS011;54397;47.506;19.158;2023-03-01T00:51:50;21.03;;;12.50;;
67571;SDS011;54397;47.506;19.158;2023-03-01T00:55:16;18.77;;;12.33;;
67571;SDS011;54397;47.506;19.158;2023-03-01T00:58:44;19.53;;;12.10;;
67571;SDS011;54397;47.506;19.158;2023-03-01T01:02:08;18.03;;;12.13;;
67571;SDS011;54397;47.506;19.158;2023-03-01T01:05:30;18.00;;;11.47;;
67571;SDS011;54397;47.506;19.158;2023-03-01T01:08:52;18.63;;;12.17;;
67571;SDS011;54397;47.506;19.158;2023-03-01T01:12:17;19.87;;;11.27;;
67571;SDS011;54397;47.506;19.158;2023-03-01T01:15:39;19.03;;;11.93;;
67571;SDS011;54397;47.506;19.158;2023-03-01T01:19:03;18.23;;;11.70;;
67571;SDS011;54397;47.506;19.158;2023-03-01T01:22:25;18.53;;;11.50;;
67571;SDS011;54397;47.506;19.158;2023-03-01T01:25:51;19.30;;;11.87;;
67571;SDS011;54397;47.506;19.158;2023-03-01T01:29:15;20.70;;;12.77;;
67571;SDS011;54397;47.506;19.158;2023-03-01T01:32:37;23.00;;;12.27;;
67571;SDS011;54397;47.506;19.158;2023-03-01T01:36:01;19.47;;;13.00;;
67571;SDS011;54397;47.506;19.158;2023-03-01T01:39:23;22.33;;;12.57;;
67571;SDS011;54397;47.506;19.158;2023-03-01T01:42:45;21.30;;;13.30;;
67571;SDS011;54397;47.506;19.158;2023-03-01T01:49:55;21.53;;;14.43;;
67571;SDS011;54397;47.506;19.158;2023-03-01T01:53:18;20.43;;;12.70;;
67571;SDS011;54397;47.506;19.158;2023-03-01T01:56:42;20.67;;;12.93;;
67571;SDS011;54397;47.506;19.158;2023-03-01T02:00:08;26.70;;;15.77;;
67571;SDS011;54397;47.506;19.158;2023-03-01T02:03:33;23.43;;;13.73;;
67571;SDS011;54397;47.506;19.158;2023-03-01T02:07:09;22.52;;;14.07;;
67571;SDS011;54397;47.506;19.158;2023-03-01T02:10:38;19.47;;;13.00;;
67571;SDS011;54397;47.506;19.158;2023-03-01T02:14:03;18.13;;;12.73;;
67571;SDS011;54397;47.506;19.158;2023-03-01T02:17:25;20.10;;;12.40;;
67571;SDS011;54397;47.506;19.158;2023-03-01T02:27:57;23.83;;;13.67;;
67571;SDS011;54397;47.506;19.158;2023-03-01T02:31:29;33.27;;;18.60;;
67571;SDS011;54397;47.506;19.158;2023-03-01T02:35:06;17.40;;;11.80;;
67571;SDS011;54397;47.506;19.158;2023-03-01T02:38:28;47.47;;;26.90;;
67571;SDS011;54397;47.506;19.158;2023-03-01T02:41:51;36.50;;;20.83;;
67571;SDS011;54397;47.506;19.158;2023-03-01T02:45:20;22.97;;;12.97;;
67571;SDS011;54397;47.506;19.158;2023-03-01T02:48:48;19.47;;;13.03;;
67571;SDS011;54397;47.506;19.158;2023-03-01T02:55:54;15.93;;;11.07;;
67571;SDS011;54397;47.506;19.158;2023-03-01T02:59:22;17.40;;;11.73;;
67571;SDS011;54397;47.506;19.158;2023-03-01T03:02:51;17.03;;;11.37;;
67571;SDS011;54397;47.506;19.158;2023-03-01T03:06:14;17.30;;;11.60;;
67571;SDS011;54397;47.506;19.158;2023-03-01T03:09:39;19.27;;;11.63;;
67571;SDS011;54397;47.506;19.158;2023-03-01T03:13:02;18.57;;;11.07;;
67571;SDS011;54397;47.506;19.158;2023-03-01T03:16:28;18.03;;;11.33;;
67571;SDS011;54397;47.506;19.158;2023-03-01T03:19:51;21.87;;;11.57;;
67571;SDS011;54397;47.506;19.158;2023-03-01T03:23:15;19.10;;;11.23;;
67571;SDS011;54397;47.506;19.158;2023-03-01T03:26:39;18.53;;;12.10;;
67571;SDS011;54397;47.506;19.158;2023-03-01T03:30:04;19.47;;;12.17;;
67571;SDS011;54397;47.506;19.158;2023-03-01T03:33:30;23.17;;;16.87;;
67571;SDS011;54397;47.506;19.158;2023-03-01T03:36:55;16.60;;;12.07;;
67571;SDS011;54397;47.506;19.158;2023-03-01T03:40:20;20.00;;;11.68;;
67571;SDS011;54397;47.506;19.158;2023-03-01T03:43:45;17.87;;;11.23;;
67571;SDS011;54397;47.506;19.158;2023-03-01T03:47:06;19.13;;;11.97;;
67571;SDS011;54397;47.506;19.158;2023-03-01T03:50:28;19.57;;;12.17;;
67571;SDS011;54397;47.506;19.158;2023-03-01T03:53:50;19.93;;;11.37;;
67571;SDS011;54397;47.506;19.158;2023-03-01T03:57:11;20.47;;;11.67;;
67571;SDS011;54397;47.506;19.158;2023-03-01T04:00:39;16.37;;;11.37;;
67571;SDS011;54397;47.506;19.158;2023-03-01T04:04:03;20.67;;;11.47;;
67571;SDS011;54397;47.506;19.158;2023-03-01T04:07:25;15.60;;;10.60;;
67571;SDS011;54397;47.506;19.158;2023-03-01T04:10:48;17.30;;;10.57;;
67571;SDS011;54397;47.506;19.158;2023-03-01T04:14:17;15.40;;;10.83;;
67571;SDS011;54397;47.506;19.158;2023-03-01T04:17:42;17.90;;;10.90;;
67571;SDS011;54397;47.506;19.158;2023-03-01T04:21:05;18.23;;;10.63;;
67571;SDS011;54397;47.506;19.158;2023-03-01T04:24:27;16.30;;;11.03;;
67571;SDS011;54397;47.506;19.158;2023-03-01T04:27:49;16.80;;;11.43;;
67571;SDS011;54397;47.506;19.158;2023-03-01T04:31:11;17.50;;;11.00;;
67571;SDS011;54397;47.506;19.158;2023-03-01T04:34:35;17.40;;;10.60;;
67571;SDS011;54397;47.506;19.158;2023-03-01T04:37:56;15.70;;;10.50;;
67571;SDS011;54397;47.506;19.158;2023-03-01T04:41:26;16.60;;;10.50;;
67571;SDS011;54397;47.506;19.158;2023-03-01T04:44:48;20.97;;;10.47;;
67571;SDS011;54397;47.506;19.158;2023-03-01T04:48:12;17.20;;;10.87;;
67571;SDS011;54397;47.506;19.158;2023-03-01T04:51:34;15.27;;;9.40;;
67571;SDS011;54397;47.506;19.158;2023-03-01T04:54:55;16.13;;;10.33;;
67571;SDS011;54397;47.506;19.158;2023-03-01T04:58:19;16.77;;;9.00;;
67571;SDS011;54397;47.506;19.158;2023-03-01T05:01:41;17.47;;;10.40;;
67571;SDS011;54397;47.506;19.158;2023-03-01T05:05:06;16.13;;;9.33;;
67571;SDS011;54397;47.506;19.158;2023-03-01T05:08:28;14.37;;;9.43;;
67571;SDS011;54397;47.506;19.158;2023-03-01T05:11:49;14.57;;;9.30;;
67571;SDS011;54397;47.506;19.158;2023-03-01T05:15:12;13.23;;;8.93;;
67571;SDS011;54397;47.506;19.158;2023-03-01T05:18:35;18.67;;;10.07;;
67571;SDS011;54397;47.506;19.158;2023-03-01T05:22:00;15.23;;;9.53;;
67571;SDS011;54397;47.506;19.158;2023-03-01T05:25:27;14.27;;;9.07;;
67571;SDS011;54397;47.506;19.158;2023-03-01T05:28:54;18.30;;;9.80;;
67571;SDS011;54397;47.506;19.158;2023-03-01T05:32:22;12.03;;;9.27;;
67571;SDS011;54397;47.506;19.158;2023-03-01T05:35:44;16.40;;;9.87;;
67571;SDS011;54397;47.506;19.158;2023-03-01T05:39:09;15.30;;;9.90;;
67571;SDS011;54397;47.506;19.158;2023-03-01T05:42:31;20.50;;;10.03;;
67571;SDS011;54397;47.506;19.158;2023-03-01T05:45:57;16.20;;;10.33;;
67571;SDS011;54397;47.506;19.158;2023-03-01T05:49:21;15.17;;;9.43;;
67571;SDS011;54397;47.506;19.158;2023-03-01T05:52:51;22.42;;;13.02;;
67571;SDS011;54397;47.506;19.158;2023-03-01T05:56:20;72.67;;;40.30;;
67571;SDS011;54397;47.506;19.158;2023-03-01T05:59:45;17.00;;;11.27;;
67571;SDS011;54397;47.506;19.158;2023-03-01T06:03:10;17.10;;;10.30;;
67571;SDS011;54397;47.506;19.158;2023-03-01T06:06:34;15.13;;;9.87;;
67571;SDS011;54397;47.506;19.158;2023-03-01T06:09:58;17.10;;;9.97;;
67571;SDS011;54397;47.506;19.158;2023-03-01T06:13:20;17.30;;;10.43;;
67571;SDS011;54397;47.506;19.158;2023-03-01T06:16:41;19.77;;;10.73;;
67571;SDS011;54397;47.506;19.158;2023-03-01T06:20:06;20.83;;;10.37;;
67571;SDS011;54397;47.506;19.158;2023-03-01T06:23:29;16.87;;;10.10;;
67571;SDS011;54397;47.506;19.158;2023-03-01T06:26:53;15.83;;;10.50;;
67571;SDS011;54397;47.506;19.158;2023-03-01T06:30:15;21.30;;;11.40;;
67571;SDS011;54397;47.506;19.158;2023-03-01T06:33:44;21.00;;;11.53;;
67571;SDS011;54397;47.506;19.158;2023-03-01T06:37:06;18.47;;;10.30;;
67571;SDS011;54397;47.506;19.158;2023-03-01T06:40:28;22.00;;;11.27;;
67571;SDS011;54397;47.506;19.158;2023-03-01T06:43:50;19.20;;;11.57;;
67571;SDS011;54397;47.506;19.158;2023-03-01T06:47:13;18.97;;;10.30;;
67571;SDS011;54397;47.506;19.158;2023-03-01T06:50:37;14.83;;;10.37;;
67571;SDS011;54397;47.506;19.158;2023-03-01T06:54:01;15.73;;;10.50;;
67571;SDS011;54397;47.506;19.158;2023-03-01T06:57:25;14.80;;;10.03;;
67571;SDS011;54397;47.506;19.158;2023-03-01T07:00:48;18.43;;;10.60;;
67571;SDS011;54397;47.506;19.158;2023-03-01T07:04:12;24.63;;;16.47;;
67571;SDS011;54397;47.506;19.158;2023-03-01T07:07:36;16.43;;;10.30;;
67571;SDS011;54397;47.506;19.158;2023-03-01T07:11:01;15.93;;;9.67;;
67571;SDS011;54397;47.506;19.158;2023-03-01T07:14:26;18.03;;;8.83;;
67571;SDS011;54397;47.506;19.158;2023-03-01T07:17:48;20.03;;;9.37;;
67571;SDS011;54397;47.506;19.158;2023-03-01T07:21:12;14.60;;;9.27;;
67571;SDS011;54397;47.506;19.158;2023-03-01T07:24:35;13.40;;;9.30;;
67571;SDS011;54397;47.506;19.158;2023-03-01T07:27:57;14.13;;;9.60;;
67571;SDS011;54397;47.506;19.158;2023-03-01T07:31:21;13.97;;;9.00;;
67571;SDS011;54397;47.506;19.158;2023-03-01T07:34:48;15.20;;;10.00;;
67571;SDS011;54397;47.506;19.158;2023-03-01T07:38:10;13.37;;;9.03;;
67571;SDS011;54397;47.506;19.158;2023-03-01T07:41:31;17.50;;;9.03;;
67571;SDS011;54397;47.506;19.158;2023-03-01T07:44:53;14.30;;;10.30;;
67571;SDS011;54397;47.506;19.158;2023-03-01T07:48:16;13.80;;;9.20;;
67571;SDS011;54397;47.506;19.158;2023-03-01T07:51:40;15.30;;;9.63;;
67571;SDS011;54397;47.506;19.158;2023-03-01T07:55:04;20.57;;;9.93;;
67571;SDS011;54397;47.506;19.158;2023-03-01T07:58:26;16.20;;;9.70;;
67571;SDS011;54397;47.506;19.158;2023-03-01T08:01:50;14.50;;;8.87;;
67571;SDS011;54397;47.506;19.158;2023-03-01T08:05:12;17.03;;;11.33;;
67571;SDS011;54397;47.506;19.158;2023-03-01T08:08:34;16.00;;;10.13;;
67571;SDS011;54397;47.506;19.158;2023-03-01T08:11:56;18.30;;;8.83;;
67571;SDS011;54397;47.506;19.158;2023-03-01T08:15:23;15.10;;;9.00;;
67571;SDS011;54397;47.506;19.158;2023-03-01T08:18:44;14.17;;;9.23;;
67571;SDS011;54397;47.506;19.158;2023-03-01T08:22:06;13.63;;;9.03;;
67571;SDS011;54397;47.506;19.158;2023-03-01T08:25:28;13.63;;;9.23;;
67571;SDS011;54397;47.506;19.158;2023-03-01T08:28:52;15.93;;;8.73;;
67571;SDS011;54397;47.506;19.158;2023-03-01T08:32:15;12.70;;;8.00;;
67571;SDS011;54397;47.506;19.158;2023-03-01T08:35:37;14.37;;;9.40;;
67571;SDS011;54397;47.506;19.158;2023-03-01T08:39:01;22.33;;;14.57;;
67571;SDS011;54397;47.506;19.158;2023-03-01T08:42:23;16.93;;;9.97;;
67571;SDS011;54397;47.506;19.158;2023-03-01T08:45:45;16.87;;;9.40;;
67571;SDS011;54397;47.506;19.158;2023-03-01T08:49:13;13.82;;;9.05;;
67571;SDS011;54397;47.506;19.158;2023-03-01T08:52:36;12.90;;;9.10;;
67571;SDS011;54397;47.506;19.158;2023-03-01T08:56:00;13.80;;;8.63;;
67571;SDS011;54397;47.506;19.158;2023-03-01T08:59:25;11.82;;;7.53;;
67571;SDS011;54397;47.506;19.158;2023-03-01T09:02:50;11.95;;;7.35;;
67571;SDS011;54397;47.506;19.158;2023-03-01T09:06:14;11.52;;;7.63;;
67571;SDS011;54397;47.506;19.158;2023-03-01T09:09:37;12.60;;;7.38;;
67571;SDS011;54397;47.506;19.158;2023-03-01T09:13:01;11.73;;;7.40;;
67571;SDS011;54397;47.506;19.158;2023-03-01T09:16:26;13.45;;;7.55;;
67571;SDS011;54397;47.506;19.158;2023-03-01T09:19:48;8.70;;;6.82;;
67571;SDS011;54397;47.506;19.158;2023-03-01T09:23:10;11.05;;;7.13;;
67571;SDS011;54397;47.506;19.158;2023-03-01T09:26:32;11.63;;;6.97;;
67571;SDS011;54397;47.506;19.158;2023-03-01T09:29:54;13.43;;;7.30;;
67571;SDS011;54397;47.506;19.158;2023-03-01T09:33:18;9.80;;;7.07;;
67571;SDS011;54397;47.506;19.158;2023-03-01T09:36:42;9.13;;;6.57;;
67571;SDS011;54397;47.506;19.158;2023-03-01T09:40:05;8.88;;;6.72;;
67571;SDS011;54397;47.506;19.158;2023-03-01T09:47:11;7.80;;;6.00;;
67571;SDS011;54397;47.506;19.158;2023-03-01T09:50:41;9.95;;;5.97;;
67571;SDS011;54397;47.506;19.158;2023-03-01T09:54:08;12.27;;;5.65;;
67571;SDS011;54397;47.506;19.158;2023-03-01T10:01:38;8.23;;;5.40;;
67571;SDS011;54397;47.506;19.158;2023-03-01T10:05:56;8.52;;;5.18;;
67571;SDS011;54397;47.506;19.158;2023-03-01T10:09:16;9.77;;;5.85;;
67571;SDS011;54397;47.506;19.158;2023-03-01T10:12:40;7.03;;;5.03;;
67571;SDS011;54397;47.506;19.158;2023-03-01T10:16:10;8.85;;;5.47;;
67571;SDS011;54397;47.506;19.158;2023-03-01T10:23:01;7.10;;;5.15;;
67571;SDS011;54397;47.506;19.158;2023-03-01T10:30:12;6.38;;;4.60;;
67571;SDS011;54397;47.506;19.158;2023-03-01T10:33:37;6.65;;;5.05;;
67571;SDS011;54397;47.506;19.158;2023-03-01T10:37:04;6.95;;;4.72;;
67571;SDS011;54397;47.506;19.158;2023-03-01T10:40:32;8.30;;;5.47;;
67571;SDS011;54397;47.506;19.158;2023-03-01T10:43:56;6.50;;;5.55;;
67571;SDS011;54397;47.506;19.158;2023-03-01T10:47:25;7.10;;;5.57;;
67571;SDS011;54397;47.506;19.158;2023-03-01T10:57:41;8.48;;;5.95;;
67571;SDS011;54397;47.506;19.158;2023-03-01T11:01:46;8.13;;;5.43;;
67571;SDS011;54397;47.506;19.158;2023-03-01T11:04:57;7.75;;;5.90;;
67571;SDS011;54397;47.506;19.158;2023-03-01T11:08:35;8.05;;;5.32;;
67571;SDS011;54397;47.506;19.158;2023-03-01T11:12:02;8.40;;;5.88;;
67571;SDS011;54397;47.506;19.158;2023-03-01T11:15:25;6.43;;;5.35;;
67571;SDS011;54397;47.506;19.158;2023-03-01T11:18:59;7.13;;;5.32;;
67571;SDS011;54397;47.506;19.158;2023-03-01T11:22:52;7.22;;;5.45;;
67571;SDS011;54397;47.506;19.158;2023-03-01T11:26:19;7.53;;;5.60;;
67571;SDS011;54397;47.506;19.158;2023-03-01T11:29:43;8.50;;;5.50;;
67571;SDS011;54397;47.506;19.158;2023-03-01T11:37:11;6.63;;;5.60;;
67571;SDS011;54397;47.506;19.158;2023-03-01T11:40:50;8.70;;;6.13;;
67571;SDS011;54397;47.506;19.158;2023-03-01T11:44:23;8.30;;;6.28;;
67571;SDS011;54397;47.506;19.158;2023-03-01T12:10:06;7.60;;;4.97;;
67571;SDS011;54397;47.506;19.158;2023-03-01T12:24:44;6.53;;;4.60;;
67571;SDS011;54397;47.506;19.158;2023-03-01T12:32:04;5.95;;;3.80;;
67571;SDS011;54397;47.506;19.158;2023-03-01T12:43:11;9.68;;;4.40;;
67571;SDS011;54397;47.506;19.158;2023-03-01T12:50:47;5.03;;;3.85;;
67571;SDS011;54397;47.506;19.158;2023-03-01T12:54:22;5.20;;;3.85;;
67571;SDS011;54397;47.506;19.158;2023-03-01T13:04:58;6.00;;;3.65;;
67571;SDS011;54397;47.506;19.158;2023-03-01T13:08:53;5.72;;;3.63;;
67571;SDS011;54397;47.506;19.158;2023-03-01T13:16:39;7.90;;;3.60;;
67571;SDS011;54397;47.506;19.158;2023-03-01T13:20:11;6.25;;;4.07;;
67571;SDS011;54397;47.506;19.158;2023-03-01T13:23:35;4.43;;;3.97;;
67571;SDS011;54397;47.506;19.158;2023-03-01T13:37:24;5.32;;;3.55;;
67571;SDS011;54397;47.506;19.158;2023-03-01T13:47:42;6.05;;;3.80;;
67571;SDS011;54397;47.506;19.158;2023-03-01T13:51:09;10.23;;;3.42;;
67571;SDS011;54397;47.506;19.158;2023-03-01T13:54:34;4.63;;;3.35;;
67571;SDS011;54397;47.506;19.158;2023-03-01T13:58:00;7.35;;;3.20;;
67571;SDS011;54397;47.506;19.158;2023-03-01T14:01:34;7.93;;;3.17;;
67571;SDS011;54397;47.506;19.158;2023-03-01T14:05:02;4.38;;;2.90;;
67571;SDS011;54397;47.506;19.158;2023-03-01T14:08:27;3.85;;;3.03;;
67571;SDS011;54397;47.506;19.158;2023-03-01T14:12:37;5.47;;;3.25;;
67571;SDS011;54397;47.506;19.158;2023-03-01T14:15:53;8.27;;;3.75;;
67571;SDS011;54397;47.506;19.158;2023-03-01T14:19:41;21.08;;;13.30;;
67571;SDS011;54397;47.506;19.158;2023-03-01T14:23:10;6.63;;;3.95;;
67571;SDS011;54397;47.506;19.158;2023-03-01T14:26:38;5.30;;;3.53;;
67571;SDS011;54397;47.506;19.158;2023-03-01T14:30:09;13.07;;;3.80;;
67571;SDS011;54397;47.506;19.158;2023-03-01T14:33:35;6.88;;;3.28;;
67571;SDS011;54397;47.506;19.158;2023-03-01T14:37:09;4.63;;;3.33;;
67571;SDS011;54397;47.506;19.158;2023-03-01T14:40:33;5.22;;;3.50;;
67571;SDS011;54397;47.506;19.158;2023-03-01T14:47:33;9.07;;;3.40;;
67571;SDS011;54397;47.506;19.158;2023-03-01T14:50:56;27.25;;;16.00;;
67571;SDS011;54397;47.506;19.158;2023-03-01T14:54:25;16.55;;;8.02;;
67571;SDS011;54397;47.506;19.158;2023-03-01T14:57:49;8.50;;;4.38;;
67571;SDS011;54397;47.506;19.158;2023-03-01T15:01:13;8.45;;;5.85;;
67571;SDS011;54397;47.506;19.158;2023-03-01T15:04:37;6.85;;;4.10;;
67571;SDS011;54397;47.506;19.158;2023-03-01T15:08:00;6.93;;;3.60;;
67571;SDS011;54397;47.506;19.158;2023-03-01T15:11:27;6.68;;;3.88;;
67571;SDS011;54397;47.506;19.158;2023-03-01T15:14:55;8.95;;;4.15;;
67571;SDS011;54397;47.506;19.158;2023-03-01T15:18:28;10.55;;;4.75;;
67571;SDS011;54397;47.506;19.158;2023-03-01T15:21:53;5.72;;;3.53;;
67571;SDS011;54397;47.506;19.158;2023-03-01T15:25:20;10.68;;;3.85;;
67571;SDS011;54397;47.506;19.158;2023-03-01T15:28:48;10.63;;;4.80;;
67571;SDS011;54397;47.506;19.158;2023-03-01T15:36:01;6.53;;;3.60;;
67571;SDS011;54397;47.506;19.158;2023-03-01T15:39:54;9.18;;;3.40;;
67571;SDS011;54397;47.506;19.158;2023-03-01T15:43:41;7.93;;;3.65;;
67571;SDS011;54397;47.506;19.158;2023-03-01T15:47:20;5.17;;;3.40;;
67571;SDS011;54397;47.506;19.158;2023-03-01T15:50:53;5.97;;;3.40;;
67571;SDS011;54397;47.506;19.158;2023-03-01T15:54:19;6.55;;;3.25;;
67571;SDS011;54397;47.506;19.158;2023-03-01T15:57:43;9.95;;;3.80;;
67571;SDS011;54397;47.506;19.158;2023-03-01T16:01:08;8.68;;;3.70;;
67571;SDS011;54397;47.506;19.158;2023-03-01T16:04:34;9.27;;;3.80;;
67571;SDS011;54397;47.506;19.158;2023-03-01T16:07:55;5.60;;;3.60;;
67571;SDS011;54397;47.506;19.158;2023-03-01T16:11:18;12.10;;;5.20;;
67571;SDS011;54397;47.506;19.158;2023-03-01T16:14:43;13.75;;;6.97;;
67571;SDS011;54397;47.506;19.158;2023-03-01T16:18:05;25.08;;;10.80;;
67571;SDS011;54397;47.506;19.158;2023-03-01T16:21:33;10.80;;;5.53;;
67571;SDS011;54397;47.506;19.158;2023-03-01T16:24:56;7.72;;;4.60;;
67571;SDS011;54397;47.506;19.158;2023-03-01T16:28:20;12.05;;;6.43;;
67571;SDS011;54397;47.506;19.158;2023-03-01T16:31:43;11.82;;;4.72;;
67571;SDS011;54397;47.506;19.158;2023-03-01T16:35:07;9.38;;;4.25;;
67571;SDS011;54397;47.506;19.158;2023-03-01T16:38:32;8.55;;;4.30;;
67571;SDS011;54397;47.506;19.158;2023-03-01T16:41:56;7.30;;;3.78;;
67571;SDS011;54397;47.506;19.158;2023-03-01T16:45:20;10.30;;;4.78;;
67571;SDS011;54397;47.506;19.158;2023-03-01T16:48:45;7.95;;;4.20;;
67571;SDS011;54397;47.506;19.158;2023-03-01T16:52:08;10.55;;;5.50;;
67571;SDS011;54397;47.506;19.158;2023-03-01T16:55:32;14.32;;;5.85;;
67571;SDS011;54397;47.506;19.158;2023-03-01T16:58:54;24.98;;;11.18;;
67571;SDS011;54397;47.506;19.158;2023-03-01T17:02:16;16.08;;;7.63;;
67571;SDS011;54397;47.506;19.158;2023-03-01T17:05:41;12.50;;;7.38;;
67571;SDS011;54397;47.506;19.158;2023-03-01T17:09:02;14.88;;;7.18;;
67571;SDS011;54397;47.506;19.158;2023-03-01T17:12:26;10.75;;;6.22;;
67571;SDS011;54397;47.506;19.158;2023-03-01T17:15:49;9.88;;;5.68;;
67571;SDS011;54397;47.506;19.158;2023-03-01T17:19:13;14.60;;;6.88;;
67571;SDS011;54397;47.506;19.158;2023-03-01T17:22:38;16.45;;;7.25;;
67571;SDS011;54397;47.506;19.158;2023-03-01T17:26:02;15.73;;;8.50;;
67571;SDS011;54397;47.506;19.158;2023-03-01T17:29:24;56.17;;;26.52;;
67571;SDS011;54397;47.506;19.158;2023-03-01T17:32:49;15.68;;;7.93;;
67571;SDS011;54397;47.506;19.158;2023-03-01T17:36:16;16.63;;;7.63;;
67571;SDS011;54397;47.506;19.158;2023-03-01T17:39:38;16.05;;;8.25;;
67571;SDS011;54397;47.506;19.158;2023-03-01T17:43:05;16.20;;;8.02;;
67571;SDS011;54397;47.506;19.158;2023-03-01T17:46:26;16.45;;;6.28;;
67571;SDS011;54397;47.506;19.158;2023-03-01T17:49:48;16.95;;;7.07;;
67571;SDS011;54397;47.506;19.158;2023-03-01T17:53:09;14.32;;;7.32;;
67571;SDS011;54397;47.506;19.158;2023-03-01T17:56:32;18.73;;;8.30;;
67571;SDS011;54397;47.506;19.158;2023-03-01T17:59:54;16.33;;;7.95;;
67571;SDS011;54397;47.506;19.158;2023-03-01T18:03:15;23.23;;;8.40;;
67571;SDS011;54397;47.506;19.158;2023-03-01T18:06:38;20.02;;;8.48;;
67571;SDS011;54397;47.506;19.158;2023-03-01T18:10:01;17.48;;;7.78;;
67571;SDS011;54397;47.506;19.158;2023-03-01T18:13:23;22.45;;;9.32;;
67571;SDS011;54397;47.506;19.158;2023-03-01T18:16:46;25.25;;;8.90;;
67571;SDS011;54397;47.506;19.158;2023-03-01T18:20:08;17.63;;;8.73;;
67571;SDS011;54397;47.506;19.158;2023-03-01T18:23:33;18.17;;;9.20;;
67571;SDS011;54397;47.506;19.158;2023-03-01T18:26:55;18.73;;;10.02;;
67571;SDS011;54397;47.506;19.158;2023-03-01T18:30:17;19.35;;;9.48;;
67571;SDS011;54397;47.506;19.158;2023-03-01T18:33:39;17.17;;;9.32;;
67571;SDS011;54397;47.506;19.158;2023-03-01T18:37:03;19.05;;;9.00;;
67571;SDS011;54397;47.506;19.158;2023-03-01T18:43:54;14.07;;;7.60;;
67571;SDS011;54397;47.506;19.158;2023-03-01T18:47:16;19.88;;;9.93;;
67571;SDS011;54397;47.506;19.158;2023-03-01T18:50:38;19.30;;;9.00;;
67571;SDS011;54397;47.506;19.158;2023-03-01T18:54:00;18.60;;;9.32;;
67571;SDS011;54397;47.506;19.158;2023-03-01T18:57:22;25.58;;;13.80;;
67571;SDS011;54397;47.506;19.158;2023-03-01T19:00:44;30.55;;;13.90;;
67571;SDS011;54397;47.506;19.158;2023-03-01T19:04:05;30.58;;;14.95;;
67571;SDS011;54397;47.506;19.158;2023-03-01T19:07:29;50.17;;;24.98;;
67571;SDS011;54397;47.506;19.158;2023-03-01T19:10:55;38.60;;;17.27;;
67571;SDS011;54397;47.506;19.158;2023-03-01T19:14:22;27.15;;;16.30;;
67571;SDS011;54397;47.506;19.158;2023-03-01T19:17:46;32.08;;;16.60;;
67571;SDS011;54397;47.506;19.158;2023-03-01T19:21:12;29.80;;;15.63;;
67571;SDS011;54397;47.506;19.158;2023-03-01T19:24:34;32.80;;;14.20;;
67571;SDS011;54397;47.506;19.158;2023-03-01T19:27:56;30.90;;;14.25;;
67571;SDS011;54397;47.506;19.158;2023-03-01T19:31:21;25.53;;;14.20;;
67571;SDS011;54397;47.506;19.158;2023-03-01T19:34:49;33.40;;;13.07;;
67571;SDS011;54397;47.506;19.158;2023-03-01T19:38:11;24.53;;;12.23;;
67571;SDS011;54397;47.506;19.158;2023-03-01T19:41:32;22.77;;;12.37;;
67571;SDS011;54397;47.506;19.158;2023-03-01T19:44:54;19.52;;;10.88;;
67571;SDS011;54397;47.506;19.158;2023-03-01T19:48:20;26.98;;;14.93;;
67571;SDS011;54397;47.506;19.158;2023-03-01T19:51:44;28.27;;;14.83;;
67571;SDS011;54397;47.506;19.158;2023-03-01T19:55:06;28.08;;;14.48;;
67571;SDS011;54397;47.506;19.158;2023-03-01T19:58:30;28.27;;;14.10;;
67571;SDS011;54397;47.506;19.158;2023-03-01T20:01:52;28.27;;;14.20;;
67571;SDS011;54397;47.506;19.158;2023-03-01T20:05:15;25.23;;;13.85;;
67571;SDS011;54397;47.506;19.158;2023-03-01T20:08:36;32.92;;;14.20;;
67571;SDS011;54397;47.506;19.158;2023-03-01T20:12:03;39.17;;;14.37;;
67571;SDS011;54397;47.506;19.158;2023-03-01T20:15:27;34.33;;;13.50;;
67571;SDS011;54397;47.506;19.158;2023-03-01T20:18:50;31.50;;;13.53;;
67571;SDS011;54397;47.506;19.158;2023-03-01T20:22:11;28.33;;;13.67;;
67571;SDS011;54397;47.506;19.158;2023-03-01T20:25:35;32.93;;;14.43;;
67571;SDS011;54397;47.506;19.158;2023-03-01T20:28:59;30.13;;;14.03;;
67571;SDS011;54397;47.506;19.158;2023-03-01T20:32:21;59.63;;;30.03;;
67571;SDS011;54397;47.506;19.158;2023-03-01T20:35:45;39.83;;;17.57;;
67571;SDS011;54397;47.506;19.158;2023-03-01T20:39:14;27.50;;;14.87;;
67571;SDS011;54397;47.506;19.158;2023-03-01T20:46:05;34.67;;;14.80;;
67571;SDS011;54397;47.506;19.158;2023-03-01T20:49:28;30.10;;;14.67;;
67571;SDS011;54397;47.506;19.158;2023-03-01T20:52:52;26.60;;;13.67;;
67571;SDS011;54397;47.506;19.158;2023-03-01T20:56:17;31.37;;;14.30;;
67571;SDS011;54397;47.506;19.158;2023-03-01T20:59:40;30.23;;;13.80;;
67571;SDS011;54397;47.506;19.158;2023-03-01T21:03:05;25.27;;;14.47;;
67571;SDS011;54397;47.506;19.158;2023-03-01T21:06:27;26.30;;;14.80;;
67571;SDS011;54397;47.506;19.158;2023-03-01T21:09:52;31.63;;;16.87;;
67571;SDS011;54397;47.506;19.158;2023-03-01T21:13:14;25.93;;;16.77;;
67571;SDS011;54397;47.506;19.158;2023-03-01T21:16:35;27.07;;;16.03;;
67571;SDS011;54397;47.506;19.158;2023-03-01T21:19:58;27.03;;;13.93;;
67571;SDS011;54397;47.506;19.158;2023-03-01T21:23:22;22.50;;;13.60;;
67571;SDS011;54397;47.506;19.158;2023-03-01T21:26:44;25.13;;;14.47;;
67571;SDS011;54397;47.506;19.158;2023-03-01T21:30:06;29.33;;;14.93;;
67571;SDS011;54397;47.506;19.158;2023-03-01T21:33:30;29.73;;;14.73;;
67571;SDS011;54397;47.506;19.158;2023-03-01T21:36:52;33.63;;;15.40;;
67571;SDS011;54397;47.506;19.158;2023-03-01T21:40:14;29.57;;;14.93;;
67571;SDS011;54397;47.506;19.158;2023-03-01T21:43:36;35.27;;;16.57;;
67571;SDS011;54397;47.506;19.158;2023-03-01T21:46:59;30.27;;;16.03;;
67571;SDS011;54397;47.506;19.158;2023-03-01T21:50:22;35.33;;;16.97;;
67571;SDS011;54397;47.506;19.158;2023-03-01T21:53:44;28.77;;;15.37;;
67571;SDS011;54397;47.506;19.158;2023-03-01T21:57:10;31.30;;;15.23;;
67571;SDS011;54397;47.506;19.158;2023-03-01T22:00:35;74.47;;;38.70;;
67571;SDS011;54397;47.506;19.158;2023-03-01T22:04:00;56.47;;;29.17;;
67571;SDS011;54397;47.506;19.158;2023-03-01T22:07:23;42.27;;;20.70;;
67571;SDS011;54397;47.506;19.158;2023-03-01T22:10:45;33.77;;;19.73;;